sensor_id;sensor_type;location;lat;lon;timestamp;temperature;humidity
7290;DHT22;63176;52.678;13.250;2023-04-08T00:01:22;6.30;99.90
7290;DHT22;63176;52.678;13.250;2023-04-08T00:03:47;6.30;99.90
7290;DHT22;63176;52.678;13.250;2023-04-08T00:06:13;6.40;99.90
7290;DHT22;63176;52.678;13.250;2023-04-08T00:08:39;6.50;99.90
7290;DHT22;63176;52.678;13.250;2023-04-08T00:11:04;6.20;99.90
7290;DHT22;63176;52.678;13.250;2023-04-08T00:13:30;6.30;99.90
7290;DHT22;63176;52.678;13.250;2023-04-08T00:15:56;6.30;99.90
7290;DHT22;63176;52.678;13.250;2023-04-08T00:18:22;6.50;99.90
7290;DHT22;63176;52.678;13.250;2023-04-08T00:20:48;6.30;99.90
7290;DHT22;63176;52.678;13.250;2023-04-08T00:23:13;6.40;99.90
7290;DHT22;63176;52.678;13.250;2023-04-08T00:25:39;6.20;99.90
7290;DHT22;63176;52.678;13.250;2023-04-08T00:28:05;6.30;99.90
7290;DHT22;63176;52.678;13.250;2023-04-08T00:30:30;6.40;99.90
7290;DHT22;63176;52.678;13.250;2023-04-08T00:32:56;6.40;99.90
7290;DHT22;63176;52.678;13.250;2023-04-08T00:35:22;6.30;99.90
7290;DHT22;63176;52.678;13.250;2023-04-08T00:37:48;6.50;99.90
7290;DHT22;63176;52.678;13.250;2023-04-08T00:40:14;6.30;99.90
7290;DHT22;63176;52.678;13.250;2023-04-08T00:42:40;6.40;99.90
7290;DHT22;63176;52.678;13.250;2023-04-08T00:45:06;6.30;99.90
7290;DHT22;63176;52.678;13.250;2023-04-08T00:47:32;6.30;99.90
7290;DHT22;63176;52.678;13.250;2023-04-08T00:49:57;6.20;99.90
7290;DHT22;63176;52.678;13.250;2023-04-08T00:52:23;6.50;99.90
7290;DHT22;63176;52.678;13.250;2023-04-08T00:54:49;6.50;99.90
7290;DHT22;63176;52.678;13.250;2023-04-08T00:57:15;6.40;99.90
7290;DHT22;63176;52.678;13.250;2023-04-08T00:59:41;6.40;99.90
7290;DHT22;63176;52.678;13.250;2023-04-08T01:02:14;6.30;99.90
7290;DHT22;63176;52.678;13.250;2023-04-08T01:04:59;6.30;99.90
7290;DHT22;63176;52.678;13.250;2023-04-08T01:07:30;6.30;99.90
7290;DHT22;63176;52.678;13.250;2023-04-08T01:10:01;6.30;99.90
7290;DHT22;63176;52.678;13.250;2023-04-08T01:12:29;6.30;99.90
7290;DHT22;63176;52.678;13.250;2023-04-08T01:15:03;6.30;99.90
7290;DHT22;63176;52.678;13.250;2023-04-08T01:17:30;6.30;99.90
7290;DHT22;63176;52.678;13.250;2023-04-08T01:19:58;6.30;99.90
7290;DHT22;63176;52.678;13.250;2023-04-08T01:25:01;6.30;99.90
7290;DHT22;63176;52.678;13.250;2023-04-08T01:27:30;6.30;99.90
7290;DHT22;63176;52.678;13.250;2023-04-08T01:29:58;6.30;99.90
7290;DHT22;63176;52.678;13.250;2023-04-08T01:32:27;6.30;99.90
7290;DHT22;63176;52.678;13.250;2023-04-08T01:34:54;6.30;99.90
7290;DHT22;63176;52.678;13.250;2023-04-08T01:37:21;6.30;99.90
7290;DHT22;63176;52.678;13.250;2023-04-08T01:39:48;6.40;99.90
7290;DHT22;63176;52.678;13.250;2023-04-08T01:42:15;6.40;99.90
7290;DHT22;63176;52.678;13.250;2023-04-08T01:44:41;6.30;99.90
7290;DHT22;63176;52.678;13.250;2023-04-08T01:47:09;6.40;99.90
7290;DHT22;63176;52.678;13.250;2023-04-08T01:49:37;6.30;99.90
7290;DHT22;63176;52.678;13.250;2023-04-08T01:52:05;6.30;99.90
7290;DHT22;63176;52.678;13.250;2023-04-08T01:54:32;6.30;99.90
7290;DHT22;63176;52.678;13.250;2023-04-08T01:56:59;6.30;99.90
7290;DHT22;63176;52.678;13.250;2023-04-08T01:59:29;6.40;99.90
7290;DHT22;63176;52.678;13.250;2023-04-08T02:01:56;6.30;99.90
7290;DHT22;63176;52.678;13.250;2023-04-08T02:04:22;6.40;99.90
7290;DHT22;63176;52.678;13.250;2023-04-08T02:06:48;6.40;99.90
7290;DHT22;63176;52.678;13.250;2023-04-08T02:09:14;6.30;99.90
7290;DHT22;63176;52.678;13.250;2023-04-08T02:11:39;6.40;99.90
7290;DHT22;63176;52.678;13.250;2023-04-08T02:14:05;6.30;99.90
7290;DHT22;63176;52.678;13.250;2023-04-08T02:16:53;6.60;99.90
7290;DHT22;63176;52.678;13.250;2023-04-08T02:19:47;6.30;99.90
7290;DHT22;63176;52.678;13.250;2023-04-08T02:22:24;6.50;99.90
7290;DHT22;63176;52.678;13.250;2023-04-08T02:24:54;6.30;99.90
7290;DHT22;63176;52.678;13.250;2023-04-08T02:27:23;6.30;99.90
7290;DHT22;63176;52.678;13.250;2023-04-08T02:29:50;6.30;99.90
7290;DHT22;63176;52.678;13.250;2023-04-08T02:32:17;6.20;99.90
7290;DHT22;63176;52.678;13.250;2023-04-08T02:34:43;6.30;99.90
7290;DHT22;63176;52.678;13.250;2023-04-08T02:37:10;6.50;99.90
7290;DHT22;63176;52.678;13.250;2023-04-08T02:39:35;6.30;99.90
7290;DHT22;63176;52.678;13.250;2023-04-08T02:42:02;6.30;99.90
7290;DHT22;63176;52.678;13.250;2023-04-08T02:44:28;6.30;99.90
7290;DHT22;63176;52.678;13.250;2023-04-08T02:46:53;6.30;99.90
7290;DHT22;63176;52.678;13.250;2023-04-08T02:49:20;6.30;99.90
7290;DHT22;63176;52.678;13.250;2023-04-08T02:51:45;6.30;99.90
7290;DHT22;63176;52.678;13.250;2023-04-08T02:54:11;6.40;99.90
7290;DHT22;63176;52.678;13.250;2023-04-08T02:56:36;6.50;99.90
7290;DHT22;63176;52.678;13.250;2023-04-08T02:59:02;6.40;99.90
7290;DHT22;63176;52.678;13.250;2023-04-08T03:01:29;6.30;99.90
7290;DHT22;63176;52.678;13.250;2023-04-08T03:03:55;6.40;99.90
7290;DHT22;63176;52.678;13.250;2023-04-08T03:06:20;6.40;99.90
7290;DHT22;63176;52.678;13.250;2023-04-08T03:08:46;6.50;99.90
7290;DHT22;63176;52.678;13.250;2023-04-08T03:11:11;6.60;99.90
7290;DHT22;63176;52.678;13.250;2023-04-08T03:13:37;6.40;99.90
7290;DHT22;63176;52.678;13.250;2023-04-08T03:16:03;6.40;99.90
7290;DHT22;63176;52.678;13.250;2023-04-08T03:18:28;6.40;99.90
7290;DHT22;63176;52.678;13.250;2023-04-08T03:20:54;6.40;99.90
7290;DHT22;63176;52.678;13.250;2023-04-08T03:23:20;6.40;99.90
7290;DHT22;63176;52.678;13.250;2023-04-08T03:25:46;6.40;99.90
7290;DHT22;63176;52.678;13.250;2023-04-08T03:28:11;6.50;99.90
7290;DHT22;63176;52.678;13.250;2023-04-08T03:30:37;6.50;99.90
7290;DHT22;63176;52.678;13.250;2023-04-08T03:33:03;6.60;99.90
7290;DHT22;63176;52.678;13.250;2023-04-08T03:35:32;6.50;99.90
7290;DHT22;63176;52.678;13.250;2023-04-08T03:37:58;6.50;99.90
7290;DHT22;63176;52.678;13.250;2023-04-08T03:40:23;6.40;99.90
7290;DHT22;63176;52.678;13.250;2023-04-08T03:42:49;6.50;99.90
7290;DHT22;63176;52.678;13.250;2023-04-08T03:45:14;6.40;99.90
7290;DHT22;63176;52.678;13.250;2023-04-08T03:47:40;6.20;99.90
7290;DHT22;63176;52.678;13.250;2023-04-08T03:50:06;6.40;99.90
7290;DHT22;63176;52.678;13.250;2023-04-08T03:52:32;6.30;99.90
7290;DHT22;63176;52.678;13.250;2023-04-08T03:54:57;6.40;99.90
7290;DHT22;63176;52.678;13.250;2023-04-08T03:57:23;6.30;99.90
7290;DHT22;63176;52.678;13.250;2023-04-08T03:59:49;6.40;99.90
7290;DHT22;63176;52.678;13.250;2023-04-08T04:02:14;6.40;99.90
7290;DHT22;63176;52.678;13.250;2023-04-08T04:04:40;6.50;99.90
7290;DHT22;63176;52.678;13.250;2023-04-08T04:07:05;6.40;99.90
7290;DHT22;63176;52.678;13.250;2023-04-08T04:09:31;6.40;99.90
7290;DHT22;63176;52.678;13.250;2023-04-08T04:11:57;6.40;99.90
7290;DHT22;63176;52.678;13.250;2023-04-08T04:14:22;6.40;99.90
7290;DHT22;63176;52.678;13.250;2023-04-08T04:16:48;6.40;99.90
7290;DHT22;63176;52.678;13.250;2023-04-08T04:19:13;6.60;99.90
7290;DHT22;63176;52.678;13.250;2023-04-08T04:21:39;6.50;99.90
7290;DHT22;63176;52.678;13.250;2023-04-08T04:24:05;6.40;99.90
7290;DHT22;63176;52.678;13.250;2023-04-08T04:26:31;6.40;99.90
7290;DHT22;63176;52.678;13.250;2023-04-08T04:28:56;6.60;99.90
7290;DHT22;63176;52.678;13.250;2023-04-08T04:31:23;6.30;99.90
7290;DHT22;63176;52.678;13.250;2023-04-08T04:33:52;6.40;99.90
7290;DHT22;63176;52.678;13.250;2023-04-08T04:36:18;6.60;99.90
7290;DHT22;63176;52.678;13.250;2023-04-08T04:38:44;6.30;99.90
7290;DHT22;63176;52.678;13.250;2023-04-08T04:41:10;6.30;99.90
7290;DHT22;63176;52.678;13.250;2023-04-08T04:43:36;6.40;99.90
7290;DHT22;63176;52.678;13.250;2023-04-08T04:46:01;6.30;99.90
7290;DHT22;63176;52.678;13.250;2023-04-08T04:48:28;6.40;99.90
7290;DHT22;63176;52.678;13.250;2023-04-08T04:50:55;6.30;99.90
7290;DHT22;63176;52.678;13.250;2023-04-08T04:53:21;6.60;99.90
7290;DHT22;63176;52.678;13.250;2023-04-08T04:55:46;6.50;99.90
7290;DHT22;63176;52.678;13.250;2023-04-08T04:58:12;6.40;99.90
7290;DHT22;63176;52.678;13.250;2023-04-08T05:00:37;6.50;99.90
7290;DHT22;63176;52.678;13.250;2023-04-08T05:03:03;6.60;99.90
7290;DHT22;63176;52.678;13.250;2023-04-08T05:05:29;6.40;99.90
7290;DHT22;63176;52.678;13.250;2023-04-08T05:07:54;6.40;99.90
7290;DHT22;63176;52.678;13.250;2023-04-08T05:10:20;6.40;99.90
7290;DHT22;63176;52.678;13.250;2023-04-08T05:12:46;6.50;99.90
7290;DHT22;63176;52.678;13.250;2023-04-08T05:15:11;6.40;99.90
7290;DHT22;63176;52.678;13.250;2023-04-08T05:17:37;6.40;99.90
7290;DHT22;63176;52.678;13.250;2023-04-08T05:20:03;6.40;99.90
7290;DHT22;63176;52.678;13.250;2023-04-08T05:22:29;6.50;99.90
7290;DHT22;63176;52.678;13.250;2023-04-08T05:24:55;6.50;99.90
7290;DHT22;63176;52.678;13.250;2023-04-08T05:27:21;6.50;99.90
7290;DHT22;63176;52.678;13.250;2023-04-08T05:29:46;6.60;99.90
7290;DHT22;63176;52.678;13.250;2023-04-08T05:32:12;6.50;99.90
7290;DHT22;63176;52.678;13.250;2023-04-08T05:34:38;6.50;99.90
7290;DHT22;63176;52.678;13.250;2023-04-08T05:37:03;6.50;99.90
7290;DHT22;63176;52.678;13.250;2023-04-08T05:39:29;6.50;99.90
7290;DHT22;63176;52.678;13.250;2023-04-08T05:41:54;6.80;99.90
7290;DHT22;63176;52.678;13.250;2023-04-08T05:44:20;6.40;99.90
7290;DHT22;63176;52.678;13.250;2023-04-08T05:46:46;6.70;99.90
7290;DHT22;63176;52.678;13.250;2023-04-08T05:49:11;6.80;99.90
7290;DHT22;63176;52.678;13.250;2023-04-08T05:51:38;6.80;99.90
7290;DHT22;63176;52.678;13.250;2023-04-08T05:54:04;6.70;99.90
7290;DHT22;63176;52.678;13.250;2023-04-08T05:56:29;6.80;99.90
7290;DHT22;63176;52.678;13.250;2023-04-08T05:58:56;6.50;99.90
7290;DHT22;63176;52.678;13.250;2023-04-08T06:01:22;6.70;99.90
7290;DHT22;63176;52.678;13.250;2023-04-08T06:03:48;6.50;99.90
7290;DHT22;63176;52.678;13.250;2023-04-08T06:06:14;6.70;99.90
7290;DHT22;63176;52.678;13.250;2023-04-08T06:08:39;6.70;99.90
7290;DHT22;63176;52.678;13.250;2023-04-08T06:11:06;6.80;99.90
7290;DHT22;63176;52.678;13.250;2023-04-08T06:13:31;6.70;99.90
7290;DHT22;63176;52.678;13.250;2023-04-08T06:15:57;6.70;99.90
7290;DHT22;63176;52.678;13.250;2023-04-08T06:18:23;6.80;99.90
7290;DHT22;63176;52.678;13.250;2023-04-08T06:20:48;6.80;99.90
7290;DHT22;63176;52.678;13.250;2023-04-08T06:23:15;6.90;99.90
7290;DHT22;63176;52.678;13.250;2023-04-08T06:25:41;6.80;99.90
7290;DHT22;63176;52.678;13.250;2023-04-08T06:28:07;6.80;99.90
7290;DHT22;63176;52.678;13.250;2023-04-08T06:30:32;6.90;99.90
7290;DHT22;63176;52.678;13.250;2023-04-08T06:32:58;6.80;99.90
7290;DHT22;63176;52.678;13.250;2023-04-08T06:35:23;6.80;99.90
7290;DHT22;63176;52.678;13.250;2023-04-08T06:37:49;7.10;99.90
7290;DHT22;63176;52.678;13.250;2023-04-08T06:40:15;6.80;99.90
7290;DHT22;63176;52.678;13.250;2023-04-08T06:42:40;6.80;99.90
7290;DHT22;63176;52.678;13.250;2023-04-08T06:45:09;6.80;99.90
7290;DHT22;63176;52.678;13.250;2023-04-08T06:47:35;6.90;99.90
7290;DHT22;63176;52.678;13.250;2023-04-08T06:50:01;7.00;99.90
7290;DHT22;63176;52.678;13.250;2023-04-08T06:52:27;7.10;99.90
7290;DHT22;63176;52.678;13.250;2023-04-08T06:54:52;7.10;99.90
7290;DHT22;63176;52.678;13.250;2023-04-08T06:57:18;7.00;99.90
7290;DHT22;63176;52.678;13.250;2023-04-08T06:59:43;7.20;99.90
7290;DHT22;63176;52.678;13.250;2023-04-08T07:02:09;7.30;99.90
7290;DHT22;63176;52.678;13.250;2023-04-08T07:04:34;7.30;99.90
7290;DHT22;63176;52.678;13.250;2023-04-08T07:07:00;7.10;99.90
7290;DHT22;63176;52.678;13.250;2023-04-08T07:09:26;7.20;99.90
7290;DHT22;63176;52.678;13.250;2023-04-08T07:11:51;7.20;99.90
7290;DHT22;63176;52.678;13.250;2023-04-08T07:14:17;7.40;99.90
7290;DHT22;63176;52.678;13.250;2023-04-08T07:16:44;7.20;99.90
7290;DHT22;63176;52.678;13.250;2023-04-08T07:19:09;7.60;99.90
7290;DHT22;63176;52.678;13.250;2023-04-08T07:21:36;7.40;99.90
7290;DHT22;63176;52.678;13.250;2023-04-08T07:24:01;7.40;99.90
7290;DHT22;63176;52.678;13.250;2023-04-08T07:26:27;7.50;99.90
7290;DHT22;63176;52.678;13.250;2023-04-08T07:28:53;7.30;99.90
7290;DHT22;63176;52.678;13.250;2023-04-08T07:31:18;7.40;99.90
7290;DHT22;63176;52.678;13.250;2023-04-08T07:33:45;7.40;99.90
7290;DHT22;63176;52.678;13.250;2023-04-08T07:36:12;7.50;99.90
7290;DHT22;63176;52.678;13.250;2023-04-08T07:38:38;7.60;99.90
7290;DHT22;63176;52.678;13.250;2023-04-08T07:41:04;7.80;99.90
7290;DHT22;63176;52.678;13.250;2023-04-08T07:43:30;7.80;99.90
7290;DHT22;63176;52.678;13.250;2023-04-08T07:46:00;7.80;99.90
7290;DHT22;63176;52.678;13.250;2023-04-08T07:48:33;7.80;99.90
7290;DHT22;63176;52.678;13.250;2023-04-08T07:51:06;7.80;99.90
7290;DHT22;63176;52.678;13.250;2023-04-08T07:53:33;7.70;99.90
7290;DHT22;63176;52.678;13.250;2023-04-08T07:55:59;7.70;99.90
7290;DHT22;63176;52.678;13.250;2023-04-08T07:58:25;7.80;99.90
7290;DHT22;63176;52.678;13.250;2023-04-08T08:00:52;7.80;99.90
7290;DHT22;63176;52.678;13.250;2023-04-08T08:03:17;7.80;99.90
7290;DHT22;63176;52.678;13.250;2023-04-08T08:05:43;7.80;99.90
7290;DHT22;63176;52.678;13.250;2023-04-08T08:08:09;7.80;99.90
7290;DHT22;63176;52.678;13.250;2023-04-08T08:10:38;8.10;99.90
7290;DHT22;63176;52.678;13.250;2023-04-08T08:13:04;8.00;99.90
7290;DHT22;63176;52.678;13.250;2023-04-08T08:15:32;7.90;99.90
7290;DHT22;63176;52.678;13.250;2023-04-08T08:17:57;8.00;99.90
7290;DHT22;63176;52.678;13.250;2023-04-08T08:20:23;8.00;99.90
7290;DHT22;63176;52.678;13.250;2023-04-08T08:22:49;7.90;99.90
7290;DHT22;63176;52.678;13.250;2023-04-08T08:25:15;8.10;99.90
7290;DHT22;63176;52.678;13.250;2023-04-08T08:27:40;8.10;99.90
7290;DHT22;63176;52.678;13.250;2023-04-08T08:30:07;8.10;99.90
7290;DHT22;63176;52.678;13.250;2023-04-08T08:32:34;8.20;99.90
7290;DHT22;63176;52.678;13.250;2023-04-08T08:35:00;8.30;99.90
7290;DHT22;63176;52.678;13.250;2023-04-08T08:37:26;8.50;99.90
7290;DHT22;63176;52.678;13.250;2023-04-08T08:39:52;8.40;99.90
7290;DHT22;63176;52.678;13.250;2023-04-08T08:42:19;8.40;99.90
7290;DHT22;63176;52.678;13.250;2023-04-08T08:44:45;8.40;99.90
7290;DHT22;63176;52.678;13.250;2023-04-08T08:47:11;8.50;99.90
7290;DHT22;63176;52.678;13.250;2023-04-08T08:49:37;8.50;99.90
7290;DHT22;63176;52.678;13.250;2023-04-08T08:52:02;8.50;99.90
7290;DHT22;63176;52.678;13.250;2023-04-08T08:54:28;8.60;99.90
7290;DHT22;63176;52.678;13.250;2023-04-08T08:56:53;8.60;99.90
7290;DHT22;63176;52.678;13.250;2023-04-08T08:59:19;8.70;99.90
7290;DHT22;63176;52.678;13.250;2023-04-08T09:01:45;8.70;99.90
7290;DHT22;63176;52.678;13.250;2023-04-08T09:04:14;8.70;99.90
7290;DHT22;63176;52.678;13.250;2023-04-08T09:06:41;8.70;99.90
7290;DHT22;63176;52.678;13.250;2023-04-08T09:09:08;8.80;99.90
7290;DHT22;63176;52.678;13.250;2023-04-08T09:11:46;8.90;99.90
7290;DHT22;63176;52.678;13.250;2023-04-08T09:14:23;8.80;99.90
7290;DHT22;63176;52.678;13.250;2023-04-08T09:16:49;8.90;99.90
7290;DHT22;63176;52.678;13.250;2023-04-08T09:19:15;8.90;99.90
7290;DHT22;63176;52.678;13.250;2023-04-08T09:21:41;9.00;99.90
7290;DHT22;63176;52.678;13.250;2023-04-08T09:24:09;9.00;99.90
7290;DHT22;63176;52.678;13.250;2023-04-08T09:26:36;9.10;99.90
7290;DHT22;63176;52.678;13.250;2023-04-08T09:29:05;9.10;99.90
7290;DHT22;63176;52.678;13.250;2023-04-08T09:31:36;9.10;99.90
7290;DHT22;63176;52.678;13.250;2023-04-08T09:34:15;9.10;99.90
7290;DHT22;63176;52.678;13.250;2023-04-08T09:36:43;9.10;99.90
7290;DHT22;63176;52.678;13.250;2023-04-08T09:39:10;9.00;99.90
7290;DHT22;63176;52.678;13.250;2023-04-08T09:41:37;9.10;99.90
7290;DHT22;63176;52.678;13.250;2023-04-08T09:44:05;9.20;99.90
7290;DHT22;63176;52.678;13.250;2023-04-08T09:46:32;9.30;99.90
7290;DHT22;63176;52.678;13.250;2023-04-08T09:49:05;9.40;99.90
7290;DHT22;63176;52.678;13.250;2023-04-08T09:51:37;9.50;99.90
7290;DHT22;63176;52.678;13.250;2023-04-08T09:54:11;9.70;99.90
7290;DHT22;63176;52.678;13.250;2023-04-08T09:56:48;9.60;99.90
7290;DHT22;63176;52.678;13.250;2023-04-08T09:59:15;9.70;99.90
7290;DHT22;63176;52.678;13.250;2023-04-08T10:01:52;9.70;99.90
7290;DHT22;63176;52.678;13.250;2023-04-08T10:04:20;9.70;99.90
7290;DHT22;63176;52.678;13.250;2023-04-08T10:06:53;9.70;99.90
7290;DHT22;63176;52.678;13.250;2023-04-08T10:09:22;9.80;99.90
7290;DHT22;63176;52.678;13.250;2023-04-08T10:11:48;9.80;99.90
7290;DHT22;63176;52.678;13.250;2023-04-08T10:14:14;9.90;99.90
7290;DHT22;63176;52.678;13.250;2023-04-08T10:16:39;9.80;99.90
7290;DHT22;63176;52.678;13.250;2023-04-08T10:19:44;9.90;99.90
7290;DHT22;63176;52.678;13.250;2023-04-08T10:22:45;10.00;99.90
7290;DHT22;63176;52.678;13.250;2023-04-08T10:27:44;10.10;99.90
7290;DHT22;63176;52.678;13.250;2023-04-08T10:32:56;10.10;99.90
7290;DHT22;63176;52.678;13.250;2023-04-08T10:35:34;10.00;99.90
7290;DHT22;63176;52.678;13.250;2023-04-08T10:38:01;10.00;99.90
7290;DHT22;63176;52.678;13.250;2023-04-08T10:40:27;10.00;99.90
7290;DHT22;63176;52.678;13.250;2023-04-08T10:42:59;9.90;99.90
7290;DHT22;63176;52.678;13.250;2023-04-08T10:45:25;9.80;99.90
7290;DHT22;63176;52.678;13.250;2023-04-08T10:47:51;9.80;99.90
7290;DHT22;63176;52.678;13.250;2023-04-08T10:50:20;9.80;99.90
7290;DHT22;63176;52.678;13.250;2023-04-08T10:52:49;9.80;99.90
7290;DHT22;63176;52.678;13.250;2023-04-08T10:55:15;9.90;99.90
7290;DHT22;63176;52.678;13.250;2023-04-08T10:57:42;9.90;99.90
7290;DHT22;63176;52.678;13.250;2023-04-08T11:00:14;9.90;99.90
7290;DHT22;63176;52.678;13.250;2023-04-08T11:02:42;10.00;99.90
7290;DHT22;63176;52.678;13.250;2023-04-08T11:05:09;9.90;99.90
7290;DHT22;63176;52.678;13.250;2023-04-08T11:07:41;9.90;99.90
7290;DHT22;63176;52.678;13.250;2023-04-08T11:10:08;10.00;99.90
7290;DHT22;63176;52.678;13.250;2023-04-08T11:12:34;10.00;99.90
7290;DHT22;63176;52.678;13.250;2023-04-08T11:15:02;10.10;99.90
7290;DHT22;63176;52.678;13.250;2023-04-08T11:17:28;10.10;99.90
7290;DHT22;63176;52.678;13.250;2023-04-08T11:19:55;10.10;99.90
7290;DHT22;63176;52.678;13.250;2023-04-08T11:22:21;10.20;99.90
7290;DHT22;63176;52.678;13.250;2023-04-08T11:24:48;10.30;99.90
7290;DHT22;63176;52.678;13.250;2023-04-08T11:27:14;10.50;99.90
7290;DHT22;63176;52.678;13.250;2023-04-08T11:29:40;10.70;99.90
7290;DHT22;63176;52.678;13.250;2023-04-08T11:32:06;10.90;99.90
7290;DHT22;63176;52.678;13.250;2023-04-08T11:34:38;11.00;99.90
7290;DHT22;63176;52.678;13.250;2023-04-08T11:37:03;11.20;99.90
7290;DHT22;63176;52.678;13.250;2023-04-08T11:39:29;11.10;99.90
7290;DHT22;63176;52.678;13.250;2023-04-08T11:41:55;11.40;99.90
7290;DHT22;63176;52.678;13.250;2023-04-08T11:44:31;11.70;99.90
7290;DHT22;63176;52.678;13.250;2023-04-08T11:47:00;11.80;99.90
7290;DHT22;63176;52.678;13.250;2023-04-08T11:49:27;11.80;99.90
7290;DHT22;63176;52.678;13.250;2023-04-08T11:51:55;11.90;99.90
7290;DHT22;63176;52.678;13.250;2023-04-08T11:54:31;11.90;99.90
7290;DHT22;63176;52.678;13.250;2023-04-08T11:56:57;12.10;99.90
7290;DHT22;63176;52.678;13.250;2023-04-08T11:59:24;12.20;99.90
7290;DHT22;63176;52.678;13.250;2023-04-08T12:01:52;12.20;99.90
7290;DHT22;63176;52.678;13.250;2023-04-08T12:04:18;12.20;99.90
7290;DHT22;63176;52.678;13.250;2023-04-08T12:06:44;12.10;99.90
7290;DHT22;63176;52.678;13.250;2023-04-08T12:09:12;12.00;99.90
7290;DHT22;63176;52.678;13.250;2023-04-08T12:11:37;11.90;99.90
7290;DHT22;63176;52.678;13.250;2023-04-08T12:14:03;12.00;99.90
7290;DHT22;63176;52.678;13.250;2023-04-08T12:16:29;12.00;99.90
7290;DHT22;63176;52.678;13.250;2023-04-08T12:18:55;11.90;99.90
7290;DHT22;63176;52.678;13.250;2023-04-08T12:21:21;11.90;99.90
7290;DHT22;63176;52.678;13.250;2023-04-08T12:23:46;11.80;99.90
7290;DHT22;63176;52.678;13.250;2023-04-08T12:26:12;11.80;99.90
7290;DHT22;63176;52.678;13.250;2023-04-08T12:28:38;11.80;99.90
7290;DHT22;63176;52.678;13.250;2023-04-08T12:31:04;11.80;99.90
7290;DHT22;63176;52.678;13.250;2023-04-08T12:33:29;11.90;99.90
7290;DHT22;63176;52.678;13.250;2023-04-08T12:35:55;12.00;99.90
7290;DHT22;63176;52.678;13.250;2023-04-08T12:38:23;12.10;99.90
7290;DHT22;63176;52.678;13.250;2023-04-08T12:40:49;12.30;99.90
7290;DHT22;63176;52.678;13.250;2023-04-08T12:43:15;12.40;99.90
7290;DHT22;63176;52.678;13.250;2023-04-08T12:45:41;12.40;99.90
7290;DHT22;63176;52.678;13.250;2023-04-08T12:48:07;12.40;99.90
7290;DHT22;63176;52.678;13.250;2023-04-08T12:50:33;12.50;99.90
7290;DHT22;63176;52.678;13.250;2023-04-08T12:52:59;12.50;99.90
7290;DHT22;63176;52.678;13.250;2023-04-08T12:55:25;12.40;99.90
7290;DHT22;63176;52.678;13.250;2023-04-08T12:57:51;12.40;99.90
7290;DHT22;63176;52.678;13.250;2023-04-08T13:00:17;12.50;99.90
7290;DHT22;63176;52.678;13.250;2023-04-08T13:02:43;12.60;99.90
7290;DHT22;63176;52.678;13.250;2023-04-08T13:05:09;13.00;99.90
7290;DHT22;63176;52.678;13.250;2023-04-08T13:07:35;13.50;99.90
7290;DHT22;63176;52.678;13.250;2023-04-08T13:10:01;14.00;99.90
7290;DHT22;63176;52.678;13.250;2023-04-08T13:12:28;14.10;99.90
7290;DHT22;63176;52.678;13.250;2023-04-08T13:14:54;13.90;99.90
7290;DHT22;63176;52.678;13.250;2023-04-08T13:17:20;13.80;99.90
7290;DHT22;63176;52.678;13.250;2023-04-08T13:19:45;13.60;99.90
7290;DHT22;63176;52.678;13.250;2023-04-08T13:22:14;13.50;99.90
7290;DHT22;63176;52.678;13.250;2023-04-08T13:24:40;13.50;99.90
7290;DHT22;63176;52.678;13.250;2023-04-08T13:27:05;13.40;99.90
7290;DHT22;63176;52.678;13.250;2023-04-08T13:29:31;13.30;99.90
7290;DHT22;63176;52.678;13.250;2023-04-08T13:31:57;13.20;99.90
7290;DHT22;63176;52.678;13.250;2023-04-08T13:34:22;13.20;99.90
7290;DHT22;63176;52.678;13.250;2023-04-08T13:36:48;13.50;99.90
7290;DHT22;63176;52.678;13.250;2023-04-08T13:39:13;13.60;99.90
7290;DHT22;63176;52.678;13.250;2023-04-08T13:41:39;14.00;99.90
7290;DHT22;63176;52.678;13.250;2023-04-08T13:44:05;14.50;99.90
7290;DHT22;63176;52.678;13.250;2023-04-08T13:46:31;15.00;99.90
7290;DHT22;63176;52.678;13.250;2023-04-08T13:48:57;15.20;99.90
7290;DHT22;63176;52.678;13.250;2023-04-08T13:51:22;15.10;99.90
7290;DHT22;63176;52.678;13.250;2023-04-08T13:53:48;14.90;99.90
7290;DHT22;63176;52.678;13.250;2023-04-08T13:56:14;14.70;99.90
7290;DHT22;63176;52.678;13.250;2023-04-08T13:58:39;14.40;99.90
7290;DHT22;63176;52.678;13.250;2023-04-08T14:01:05;14.10;99.90
7290;DHT22;63176;52.678;13.250;2023-04-08T14:03:31;13.80;99.90
7290;DHT22;63176;52.678;13.250;2023-04-08T14:05:56;13.60;99.90
7290;DHT22;63176;52.678;13.250;2023-04-08T14:08:23;13.50;99.90
7290;DHT22;63176;52.678;13.250;2023-04-08T14:10:52;13.50;99.90
7290;DHT22;63176;52.678;13.250;2023-04-08T14:13:18;13.60;99.90
7290;DHT22;63176;52.678;13.250;2023-04-08T14:15:43;13.90;99.90
7290;DHT22;63176;52.678;13.250;2023-04-08T14:18:09;14.20;99.90
7290;DHT22;63176;52.678;13.250;2023-04-08T14:20:37;14.60;99.90
7290;DHT22;63176;52.678;13.250;2023-04-08T14:23:03;14.90;99.90
7290;DHT22;63176;52.678;13.250;2023-04-08T14:25:28;15.20;99.90
7290;DHT22;63176;52.678;13.250;2023-04-08T14:27:54;15.30;99.90
7290;DHT22;63176;52.678;13.250;2023-04-08T14:30:21;15.20;99.90
7290;DHT22;63176;52.678;13.250;2023-04-08T14:32:47;15.00;99.90
7290;DHT22;63176;52.678;13.250;2023-04-08T14:35:12;14.70;99.90
7290;DHT22;63176;52.678;13.250;2023-04-08T14:37:38;14.50;99.90
7290;DHT22;63176;52.678;13.250;2023-04-08T14:40:05;14.30;99.90
7290;DHT22;63176;52.678;13.250;2023-04-08T14:42:31;14.10;99.90
7290;DHT22;63176;52.678;13.250;2023-04-08T14:44:57;14.50;99.90
7290;DHT22;63176;52.678;13.250;2023-04-08T14:47:23;15.10;99.90
7290;DHT22;63176;52.678;13.250;2023-04-08T14:49:48;15.70;99.90
7290;DHT22;63176;52.678;13.250;2023-04-08T14:52:14;16.20;99.90
7290;DHT22;63176;52.678;13.250;2023-04-08T14:54:39;16.70;99.90
7290;DHT22;63176;52.678;13.250;2023-04-08T14:57:06;17.20;99.90
7290;DHT22;63176;52.678;13.250;2023-04-08T14:59:31;17.60;99.90
7290;DHT22;63176;52.678;13.250;2023-04-08T15:01:57;17.80;99.90
7290;DHT22;63176;52.678;13.250;2023-04-08T15:04:23;17.80;99.90
7290;DHT22;63176;52.678;13.250;2023-04-08T15:06:48;17.60;99.90
7290;DHT22;63176;52.678;13.250;2023-04-08T15:09:14;16.90;99.90
7290;DHT22;63176;52.678;13.250;2023-04-08T15:11:40;16.30;99.90
7290;DHT22;63176;52.678;13.250;2023-04-08T15:14:06;15.70;99.90
7290;DHT22;63176;52.678;13.250;2023-04-08T15:16:31;15.20;99.90
7290;DHT22;63176;52.678;13.250;2023-04-08T15:18:57;14.70;99.90
7290;DHT22;63176;52.678;13.250;2023-04-08T15:21:25;14.30;99.90
7290;DHT22;63176;52.678;13.250;2023-04-08T15:23:51;14.00;99.90
7290;DHT22;63176;52.678;13.250;2023-04-08T15:26:17;13.70;99.90
7290;DHT22;63176;52.678;13.250;2023-04-08T15:28:43;13.50;99.90
7290;DHT22;63176;52.678;13.250;2023-04-08T15:31:08;13.40;99.90
7290;DHT22;63176;52.678;13.250;2023-04-08T15:33:34;13.40;99.90
7290;DHT22;63176;52.678;13.250;2023-04-08T15:36:03;13.50;99.90
7290;DHT22;63176;52.678;13.250;2023-04-08T15:38:29;13.50;99.90
7290;DHT22;63176;52.678;13.250;2023-04-08T15:40:55;13.50;99.90
7290;DHT22;63176;52.678;13.250;2023-04-08T15:43:21;13.50;99.90
7290;DHT22;63176;52.678;13.250;2023-04-08T15:45:47;13.60;99.90
7290;DHT22;63176;52.678;13.250;2023-04-08T15:48:12;13.30;99.90